KISP/ISP METAR and TAF weather

Enter ICAO airport designator
Station Type Date Time Source
KISP METAR 2022/01/18 06:56 UTC NOAA

KISP 180656Z AUTO 30018G30KT 10SM FEW038 00/M07 A2944 RMK AO2 PK WND 30032/0618 SLP971 T00001067


Station Type Date Time Source
KISP Decoded METAR 2022/01/18 06:56 UTC NOAA

ISLIP LONG ISLAND MAC ART, NY, United States (KISP) 40-48N 073-06W 43M
Jan 18, 2022 - 01:56 AM EST / 2022.01.18 0656 UTC
Wind: from the WNW (300 degrees) at 21 MPH (18 KT) gusting to 35 MPH (30 KT):0
Visibility: 10 mile(s):0
Sky conditions: mostly clear
Temperature: 32.0 F (0.0 C)
Windchill: 19 F (-7 C):1
Dew Point: 19.9 F (-6.7 C)
Relative Humidity: 60%
Pressure (altimeter): 29.44 in. Hg (996 hPa)
ob: KISP 180656Z AUTO 30018G30KT 10SM FEW038 00/M07 A2944 RMK AO2 PK WND 30032/0618 SLP971 T00001067
cycle: 7

Station Type Date Time Source
KISP TAF 2022/01/18 06:36 UTC NOAA

TAF KISP 180533Z 1806/1906 29018G29KT P6SM SCT035
TEMPO 1806/1807 1SM -SN BKN025
FM181500 30021G30KT P6SM SCT050
FM182200 30016G25KT P6SM FEW035
FM190100 29008KT P6SM SKC
FM190500 VRB05KT P6SM BKN250

Example: see airport list